createdAt,value
2018-09-29T00:01:30.622Z,23.23
2018-09-29T00:03:58.509Z,23.21
2018-09-29T00:06:26.393Z,23.22
2018-09-29T00:08:53.701Z,23.08
2018-09-29T00:11:21.577Z,23.21
2018-09-29T00:14:24.581Z,23.13
2018-09-29T00:16:52.590Z,23.18
2018-09-29T00:19:19.859Z,23.21
2018-09-29T00:21:47.745Z,23.19
2018-09-29T00:26:43.942Z,23.17
2018-09-29T00:29:11.657Z,23.17
2018-09-29T00:31:39.301Z,23.18
2018-09-29T00:34:06.976Z,23.17
2018-09-29T00:36:34.401Z,23.17
2018-09-29T00:39:02.346Z,23.17
2018-09-29T00:41:30.094Z,23.17
2018-09-29T00:43:57.870Z,23.14
2018-09-29T00:46:25.926Z,23.14
2018-09-29T00:48:53.761Z,23.16
2018-09-29T00:51:21.592Z,23.14
2018-09-29T00:53:50.299Z,23.11
2018-09-29T00:56:17.985Z,23.13
2018-09-29T00:58:45.528Z,23.14
2018-09-29T01:01:13.209Z,23.12
2018-09-29T01:03:40.973Z,23.11
2018-09-29T01:06:08.722Z,23.11
2018-09-29T01:08:37.178Z,23.11
2018-09-29T01:11:05.195Z,23.03
2018-09-29T01:13:33.050Z,23.09
2018-09-29T01:16:00.777Z,23.09
2018-09-29T01:18:28.646Z,23.09
2018-09-29T01:20:56.550Z,23.10
2018-09-29T01:23:24.186Z,23.07
2018-09-29T01:25:51.940Z,23.06
2018-09-29T01:28:19.722Z,23.07
2018-09-29T01:30:47.530Z,23.06
2018-09-29T01:33:15.201Z,23.01
2018-09-29T01:35:43.166Z,23.08
2018-09-29T01:38:10.762Z,23.08
2018-09-29T01:40:38.590Z,23.05
2018-09-29T01:43:06.525Z,23.05
2018-09-29T01:45:33.753Z,23.07
2018-09-29T01:48:01.702Z,23.06
2018-09-29T01:50:29.562Z,23.07
2018-09-29T01:52:57.360Z,23.06
2018-09-29T01:55:25.046Z,23.04
2018-09-29T01:57:52.444Z,23.02
2018-09-29T02:00:20.190Z,23.02
2018-09-29T02:02:48.018Z,23.07
2018-09-29T02:05:16.055Z,23.05
2018-09-29T02:07:43.965Z,23.02
2018-09-29T02:10:11.661Z,22.93
2018-09-29T02:12:39.300Z,22.95
2018-09-29T02:17:34.196Z,23.01
2018-09-29T02:20:02.006Z,23.00
2018-09-29T02:22:29.938Z,22.97
2018-09-29T02:24:57.177Z,22.99
2018-09-29T02:27:25.170Z,23.02
2018-09-29T02:29:52.982Z,22.99
2018-09-29T02:32:20.719Z,23.02
2018-09-29T02:37:16.058Z,23.02
2018-09-29T02:39:44.086Z,23.02
2018-09-29T02:42:11.773Z,23.00
2018-09-29T02:44:39.912Z,22.99
2018-09-29T02:47:07.734Z,22.95
2018-09-29T02:49:35.577Z,22.98
2018-09-29T02:52:03.301Z,22.95
2018-09-29T02:54:31.198Z,22.80
2018-09-29T02:56:58.573Z,22.93
2018-09-29T02:59:26.623Z,22.94
2018-09-29T03:01:54.514Z,22.92
2018-09-29T03:04:22.329Z,22.93
2018-09-29T03:06:51.549Z,22.93
2018-09-29T03:09:20.314Z,22.94
2018-09-29T03:11:48.046Z,22.94
2018-09-29T03:14:15.946Z,22.82
2018-09-29T03:16:43.805Z,22.92
2018-09-29T03:19:12.073Z,22.91
2018-09-29T03:21:39.778Z,22.90
2018-09-29T03:24:07.590Z,22.92
2018-09-29T03:26:35.470Z,22.89
2018-09-29T03:29:03.391Z,22.85
2018-09-29T03:31:31.235Z,22.86
2018-09-29T03:33:59.054Z,22.87
2018-09-29T03:36:26.954Z,22.85
2018-09-29T03:38:54.807Z,22.82
2018-09-29T03:41:22.731Z,22.85
2018-09-29T03:43:50.580Z,22.84
2018-09-29T03:46:18.469Z,22.82
2018-09-29T03:49:38.588Z,22.82
2018-09-29T03:52:06.366Z,22.86
2018-09-29T03:54:34.030Z,22.82
2018-09-29T03:57:01.951Z,22.81
2018-09-29T03:59:29.895Z,22.79
2018-09-29T04:01:57.664Z,22.81
2018-09-29T04:04:25.467Z,22.81
2018-09-29T04:06:53.282Z,22.79
2018-09-29T04:09:20.994Z,22.81
2018-09-29T04:11:48.758Z,22.77
2018-09-29T04:14:16.586Z,22.80
2018-09-29T04:16:44.450Z,22.75
2018-09-29T04:19:12.490Z,22.76
2018-09-29T04:21:48.806Z,22.77
2018-09-29T04:24:17.470Z,22.71
2018-09-29T04:26:45.181Z,22.78
2018-09-29T04:29:14.188Z,22.75
2018-09-29T04:31:42.398Z,22.73
2018-09-29T04:34:10.677Z,22.75
2018-09-29T04:36:38.466Z,22.74
2018-09-29T04:39:09.087Z,22.73
2018-09-29T04:41:37.546Z,22.70
2018-09-29T04:44:05.509Z,22.70
2018-09-29T04:46:33.301Z,22.73
2018-09-29T04:49:00.999Z,22.74
2018-09-29T04:51:28.913Z,22.74
2018-09-29T04:53:56.671Z,22.74
2018-09-29T04:56:24.306Z,22.73
2018-09-29T04:58:52.014Z,22.74
2018-09-29T05:01:19.905Z,22.74
2018-09-29T05:03:47.643Z,22.66
2018-09-29T05:06:15.305Z,22.74
2018-09-29T05:08:42.996Z,22.72
2018-09-29T05:11:10.912Z,22.71
2018-09-29T05:13:38.666Z,22.74
2018-09-29T05:16:06.849Z,22.71
2018-09-29T05:18:34.714Z,22.72
2018-09-29T05:21:02.874Z,22.76
2018-09-29T05:23:30.906Z,22.77
2018-09-29T05:25:58.826Z,22.73
2018-09-29T05:28:26.639Z,22.73
2018-09-29T05:30:54.441Z,22.73
2018-09-29T05:33:22.186Z,22.71
2018-09-29T05:35:50.055Z,22.70
2018-09-29T05:38:17.849Z,22.73
2018-09-29T05:40:45.659Z,22.72
2018-09-29T05:43:13.485Z,22.71
2018-09-29T05:45:41.172Z,22.63
2018-09-29T05:48:08.811Z,22.72
2018-09-29T05:50:36.611Z,22.74
2018-09-29T05:53:04.422Z,22.79
2018-09-29T05:55:32.204Z,22.72
2018-09-29T05:57:59.966Z,22.74
2018-09-29T06:00:27.725Z,22.69
2018-09-29T06:02:55.897Z,22.70
2018-09-29T06:05:23.736Z,22.68
2018-09-29T06:07:51.489Z,22.73
2018-09-29T06:10:19.196Z,22.68
2018-09-29T06:12:47.036Z,22.68
2018-09-29T06:15:14.382Z,22.68
2018-09-29T06:17:42.038Z,22.72
2018-09-29T06:20:10.014Z,22.71
2018-09-29T06:22:37.395Z,22.72
2018-09-29T06:25:05.183Z,22.71
2018-09-29T06:27:32.768Z,22.73
2018-09-29T06:30:26.581Z,22.72
2018-09-29T06:32:54.490Z,22.75
2018-09-29T06:35:22.195Z,22.72
2018-09-29T06:37:49.758Z,22.81
2018-09-29T06:40:17.590Z,22.80
2018-09-29T06:42:45.597Z,22.72
2018-09-29T06:45:14.014Z,22.74
2018-09-29T06:47:42.059Z,22.77
2018-09-29T06:50:09.906Z,22.82
2018-09-29T06:52:37.670Z,22.83
2018-09-29T06:55:05.544Z,22.83
2018-09-29T06:57:33.361Z,22.86
2018-09-29T07:00:01.067Z,22.95
2018-09-29T07:02:28.442Z,23.05
2018-09-29T07:04:56.345Z,22.93
2018-09-29T07:07:24.765Z,22.93
2018-09-29T07:09:53.553Z,22.95
2018-09-29T07:12:21.394Z,22.96
2018-09-29T07:14:49.149Z,22.88
2018-09-29T07:17:17.006Z,23.02
2018-09-29T07:22:11.858Z,22.89
2018-09-29T07:24:40.472Z,22.95
2018-09-29T07:27:08.209Z,22.93
2018-09-29T07:29:36.012Z,23.01
2018-09-29T07:32:03.873Z,23.03
2018-09-29T07:34:31.677Z,23.03
2018-09-29T07:36:59.582Z,22.81
2018-09-29T07:39:27.390Z,23.03
2018-09-29T07:41:55.073Z,23.07
2018-09-29T07:44:22.763Z,23.11
2018-09-29T07:46:50.671Z,23.14
2018-09-29T07:49:18.474Z,23.18
2018-09-29T07:51:46.454Z,23.09
2018-09-29T07:54:14.178Z,23.06
2018-09-29T07:56:41.985Z,23.09
2018-09-29T07:59:09.846Z,22.82
2018-09-29T08:01:37.759Z,21.99
2018-09-29T08:04:05.625Z,21.41
2018-09-29T08:06:33.370Z,21.15
2018-09-29T08:09:01.007Z,20.36
2018-09-29T08:11:28.931Z,21.08
2018-09-29T08:13:56.773Z,21.07
2018-09-29T08:16:24.617Z,20.89
2018-09-29T08:18:51.858Z,21.01
2018-09-29T08:21:19.726Z,20.91
2018-09-29T08:23:47.810Z,21.08
2018-09-29T08:26:15.626Z,21.06
2018-09-29T08:28:43.369Z,20.89
2018-09-29T08:31:10.626Z,21.05
2018-09-29T08:34:27.586Z,21.30
2018-09-29T08:38:06.752Z,21.16
2018-09-29T08:40:34.630Z,21.03
2018-09-29T08:43:02.412Z,20.80
2018-09-29T08:45:30.549Z,20.71
2018-09-29T08:47:58.358Z,20.69
2018-09-29T08:50:26.473Z,20.60
2018-09-29T08:52:54.230Z,20.69
2018-09-29T08:55:21.946Z,20.85
2018-09-29T08:57:49.755Z,20.75
2018-09-29T09:00:17.595Z,20.22
2018-09-29T09:02:45.510Z,20.58
2018-09-29T09:05:13.207Z,20.55
2018-09-29T09:07:40.976Z,20.65
2018-09-29T09:10:08.777Z,20.35
2018-09-29T09:12:36.575Z,19.90
2018-09-29T09:15:04.417Z,19.95
2018-09-29T09:17:32.067Z,20.06
2018-09-29T09:19:59.969Z,19.71
2018-09-29T09:22:27.665Z,20.18
2018-09-29T09:24:55.404Z,20.16
2018-09-29T09:27:23.405Z,20.20
2018-09-29T09:29:51.260Z,20.06
2018-09-29T09:32:18.957Z,20.17
2018-09-29T09:34:46.886Z,20.19
2018-09-29T09:37:14.674Z,20.22
2018-09-29T09:39:42.382Z,20.34
2018-09-29T09:42:10.207Z,20.27
2018-09-29T09:44:37.997Z,20.14
2018-09-29T09:47:06.107Z,20.28
2018-09-29T09:49:33.456Z,20.45
2018-09-29T09:52:01.177Z,20.23
2018-09-29T09:54:28.938Z,20.11
2018-09-29T09:56:58.008Z,19.91
2018-09-29T09:59:25.668Z,20.13
2018-09-29T10:01:59.547Z,19.60
2018-09-29T10:04:27.383Z,19.29
2018-09-29T10:06:55.188Z,19.14
2018-09-29T10:09:23.054Z,19.06
2018-09-29T10:11:50.894Z,18.79
2018-09-29T10:14:18.741Z,18.88
2018-09-29T10:16:46.587Z,19.39
2018-09-29T10:19:14.310Z,19.83
2018-09-29T10:21:42.041Z,19.63
2018-09-29T10:24:09.924Z,20.07
2018-09-29T10:26:37.734Z,20.16
2018-09-29T10:29:05.671Z,19.76
2018-09-29T10:31:33.626Z,19.58
2018-09-29T10:34:01.650Z,19.10
2018-09-29T10:38:05.742Z,19.86
2018-09-29T10:42:46.594Z,20.13
2018-09-29T10:45:14.005Z,20.22
2018-09-29T10:47:41.922Z,20.23
2018-09-29T10:50:09.721Z,20.31
2018-09-29T10:52:39.027Z,20.17
2018-09-29T10:55:06.493Z,20.36
2018-09-29T10:57:34.205Z,20.39
2018-09-29T11:00:01.926Z,20.40
2018-09-29T11:02:29.868Z,20.59
2018-09-29T11:04:57.908Z,20.49
2018-09-29T11:07:25.791Z,20.51
2018-09-29T11:09:53.776Z,20.61
2018-09-29T11:12:21.754Z,20.70
2018-09-29T11:14:49.602Z,20.66
2018-09-29T11:17:17.396Z,20.60
2018-09-29T11:19:45.198Z,20.65
2018-09-29T11:22:13.049Z,20.60
2018-09-29T11:24:41.001Z,20.55
2018-09-29T11:27:09.542Z,20.60
2018-09-29T11:29:37.305Z,20.69
2018-09-29T11:32:05.032Z,20.55
2018-09-29T11:34:33.217Z,20.58
2018-09-29T11:37:00.959Z,20.67
2018-09-29T11:39:29.051Z,20.70
2018-09-29T11:41:56.697Z,20.76
2018-09-29T11:44:24.716Z,20.77
2018-09-29T11:46:53.191Z,20.74
2018-09-29T11:49:20.864Z,20.75
2018-09-29T11:51:48.795Z,20.75
2018-09-29T11:54:16.588Z,20.84
2018-09-29T11:56:43.770Z,20.85
2018-09-29T11:59:11.595Z,20.80
2018-09-29T12:01:39.826Z,20.80
2018-09-29T12:04:07.029Z,20.60
2018-09-29T12:06:34.940Z,20.66
2018-09-29T12:09:02.910Z,20.91
2018-09-29T12:11:30.757Z,20.88
2018-09-29T12:13:58.612Z,20.85
2018-09-29T12:16:26.586Z,20.61
2018-09-29T12:18:54.513Z,20.71
2018-09-29T12:21:22.521Z,20.69
2018-09-29T12:23:50.578Z,20.91
2018-09-29T12:26:18.679Z,20.81
2018-09-29T12:28:46.598Z,20.88
2018-09-29T12:31:14.573Z,20.96
2018-09-29T12:33:42.424Z,20.90
2018-09-29T12:36:10.240Z,20.89
2018-09-29T12:38:38.200Z,20.35
2018-09-29T12:41:06.052Z,20.17
2018-09-29T12:43:33.876Z,19.86
2018-09-29T12:46:01.635Z,19.73
2018-09-29T12:48:29.846Z,19.81
2018-09-29T12:53:36.878Z,20.53
2018-09-29T12:56:04.712Z,20.36
2018-09-29T12:58:32.930Z,20.20
2018-09-29T13:01:00.743Z,20.51
2018-09-29T13:03:28.625Z,20.71
2018-09-29T13:05:56.322Z,20.42
2018-09-29T13:08:24.415Z,20.43
2018-09-29T13:10:52.371Z,20.63
2018-09-29T13:13:20.067Z,20.74
2018-09-29T13:15:47.884Z,20.70
2018-09-29T13:18:15.193Z,20.73
2018-09-29T13:20:42.967Z,20.84
2018-09-29T13:23:10.762Z,20.84
2018-09-29T13:25:38.617Z,20.82
2018-09-29T13:28:06.566Z,21.03
2018-09-29T13:30:34.313Z,20.97
2018-09-29T13:33:02.023Z,21.01
2018-09-29T13:35:29.877Z,21.00
2018-09-29T13:37:57.799Z,21.09
2018-09-29T13:40:25.682Z,20.99
2018-09-29T13:42:53.318Z,21.24
2018-09-29T13:45:21.225Z,21.22
2018-09-29T13:47:49.234Z,21.20
2018-09-29T13:50:16.933Z,21.25
2018-09-29T13:52:44.769Z,21.34
2018-09-29T13:55:12.593Z,21.24
2018-09-29T13:57:40.321Z,21.33
2018-09-29T14:00:08.081Z,21.29
2018-09-29T14:02:36.077Z,21.34
2018-09-29T14:05:03.863Z,21.19
2018-09-29T14:07:31.728Z,21.03
2018-09-29T14:09:59.569Z,20.95
2018-09-29T14:12:27.741Z,21.00
2018-09-29T14:14:55.561Z,20.81
2018-09-29T14:17:22.750Z,20.60
2018-09-29T14:19:50.778Z,20.81
2018-09-29T14:22:18.546Z,20.98
2018-09-29T14:24:46.226Z,21.13
2018-09-29T14:29:47.718Z,21.13
2018-09-29T14:32:15.593Z,21.14
2018-09-29T14:34:43.330Z,21.24
2018-09-29T14:37:11.039Z,21.11
2018-09-29T14:39:38.481Z,21.11
2018-09-29T14:42:06.572Z,20.94
2018-09-29T14:44:34.306Z,20.97
2018-09-29T14:47:01.983Z,20.97
2018-09-29T14:49:29.429Z,20.78
2018-09-29T14:51:57.175Z,20.80
2018-09-29T14:54:24.893Z,20.54
2018-09-29T14:56:52.689Z,20.45
2018-09-29T14:59:20.462Z,20.51
2018-09-29T15:01:48.205Z,20.64
2018-09-29T15:04:15.773Z,20.43
2018-09-29T15:06:43.591Z,20.67
2018-09-29T15:09:12.846Z,20.51
2018-09-29T15:11:41.008Z,20.47
2018-09-29T15:14:09.609Z,20.17
2018-09-29T15:16:37.390Z,19.92
2018-09-29T15:19:05.282Z,19.81
2018-09-29T15:21:32.993Z,19.87
2018-09-29T15:24:00.338Z,19.98
2018-09-29T15:26:28.842Z,20.22
2018-09-29T15:28:56.913Z,20.21
2018-09-29T15:31:24.773Z,19.97
2018-09-29T15:33:52.735Z,20.07
2018-09-29T15:36:20.822Z,19.97
2018-09-29T15:38:48.653Z,19.86
2018-09-29T15:41:16.385Z,19.77
2018-09-29T15:43:43.771Z,19.94
2018-09-29T15:46:11.593Z,19.84
2018-09-29T15:48:39.539Z,19.51
2018-09-29T15:51:06.769Z,19.60
2018-09-29T15:53:35.026Z,19.94
2018-09-29T15:56:02.798Z,19.85
2018-09-29T15:58:30.676Z,19.74
2018-09-29T16:00:58.304Z,19.78
2018-09-29T16:03:25.993Z,19.95
2018-09-29T16:05:53.653Z,19.86
2018-09-29T16:08:21.417Z,19.66
2018-09-29T16:10:49.345Z,19.89
2018-09-29T16:13:17.256Z,19.98
2018-09-29T16:15:45.225Z,20.31
2018-09-29T16:18:12.975Z,20.36
2018-09-29T16:20:41.044Z,20.41
2018-09-29T16:23:08.774Z,20.43
2018-09-29T16:25:36.573Z,20.41
2018-09-29T16:28:04.585Z,20.41
2018-09-29T16:30:31.951Z,20.35
2018-09-29T16:32:59.942Z,20.38
2018-09-29T16:35:27.750Z,20.55
2018-09-29T16:37:55.591Z,20.85
2018-09-29T16:40:23.538Z,20.96
2018-09-29T16:42:51.533Z,21.04
2018-09-29T16:45:19.481Z,21.04
2018-09-29T16:47:47.393Z,21.05
2018-09-29T16:50:15.169Z,21.07
2018-09-29T16:52:42.954Z,21.09
2018-09-29T16:55:10.763Z,20.84
2018-09-29T16:57:39.215Z,20.66
2018-09-29T17:00:07.232Z,20.64
2018-09-29T17:02:35.117Z,20.53
2018-09-29T17:05:03.190Z,20.50
2018-09-29T17:07:30.970Z,20.50
2018-09-29T17:09:59.046Z,20.47
2018-09-29T17:12:26.877Z,20.46
2018-09-29T17:14:54.829Z,20.42
2018-09-29T17:17:22.757Z,20.40
2018-09-29T17:19:50.674Z,20.36
2018-09-29T17:22:18.594Z,20.48
2018-09-29T17:24:46.713Z,20.66
2018-09-29T17:29:10.645Z,21.10
2018-09-29T17:31:38.685Z,21.02
2018-09-29T17:34:06.619Z,20.98
2018-09-29T17:37:22.830Z,20.83
2018-09-29T17:39:51.753Z,20.83
2018-09-29T17:42:20.902Z,20.86
2018-09-29T17:44:50.552Z,20.92
2018-09-29T17:47:19.837Z,20.83
2018-09-29T17:49:49.032Z,20.82
2018-09-29T17:52:18.796Z,20.90
2018-09-29T17:54:48.793Z,20.98
2018-09-29T17:57:18.660Z,20.84
2018-09-29T17:59:47.801Z,20.98
2018-09-29T18:02:18.026Z,21.14
2018-09-29T18:04:47.870Z,21.21
2018-09-29T18:07:17.646Z,21.21
2018-09-29T18:09:47.066Z,21.20
2018-09-29T18:13:23.785Z,21.28
2018-09-29T18:15:53.638Z,21.14
2018-09-29T18:18:22.860Z,21.27
2018-09-29T18:20:53.197Z,21.24
2018-09-29T18:23:21.877Z,21.26
2018-09-29T18:25:55.707Z,21.26
2018-09-29T18:28:24.903Z,21.36
2018-09-29T18:30:53.749Z,21.45
2018-09-29T18:33:23.746Z,21.48
2018-09-29T18:35:52.837Z,21.48
2018-09-29T18:38:22.534Z,21.49
2018-09-29T18:40:52.438Z,21.46
2018-09-29T18:43:21.790Z,21.51
2018-09-29T18:45:50.939Z,21.51
2018-09-29T18:48:20.750Z,21.52
2018-09-29T18:50:49.849Z,21.50
2018-09-29T18:53:18.846Z,21.40
2018-09-29T18:55:47.858Z,21.40
2018-09-29T18:59:54.297Z,21.41
2018-09-29T19:02:22.006Z,21.42
2018-09-29T19:04:49.887Z,21.43
2018-09-29T19:07:17.714Z,21.48
2018-09-29T19:09:45.578Z,21.46
2018-09-29T19:12:13.625Z,21.45
2018-09-29T19:14:41.554Z,21.49
2018-09-29T19:17:08.769Z,21.50
2018-09-29T19:19:36.577Z,21.49
2018-09-29T19:24:44.211Z,21.46
2018-09-29T19:27:13.693Z,21.45
2018-09-29T19:29:42.854Z,21.49
2018-09-29T19:32:11.861Z,21.50
2018-09-29T19:34:41.069Z,21.52
2018-09-29T19:37:10.750Z,21.48
2018-09-29T19:39:39.975Z,21.50
2018-09-29T19:42:09.180Z,21.50
2018-09-29T19:44:38.717Z,21.50
2018-09-29T19:47:07.862Z,21.53
2018-09-29T19:49:36.893Z,21.55
2018-09-29T19:52:06.062Z,21.50
2018-09-29T19:54:35.177Z,21.56
2018-09-29T19:57:04.696Z,21.57
2018-09-29T19:59:32.833Z,21.57
2018-09-29T20:02:05.829Z,21.57
2018-09-29T20:04:34.906Z,21.57
2018-09-29T20:07:04.555Z,21.57
2018-09-29T20:12:10.470Z,21.63
2018-09-29T20:14:39.602Z,21.60
2018-09-29T20:17:07.791Z,21.61
2018-09-29T20:19:36.908Z,21.64
2018-09-29T20:22:09.781Z,21.62
2018-09-29T20:24:38.870Z,21.64
2018-09-29T20:27:08.775Z,21.67
2018-09-29T20:29:37.927Z,21.65
2018-09-29T20:34:21.669Z,21.57
2018-09-29T20:36:49.542Z,21.66
2018-09-29T20:39:17.390Z,21.67
2018-09-29T20:41:45.062Z,21.68
2018-09-29T20:44:13.349Z,21.67
2018-09-29T20:46:41.056Z,21.67
2018-09-29T20:49:09.046Z,21.71
2018-09-29T20:51:37.011Z,21.49
2018-09-29T20:54:05.005Z,21.69
2018-09-29T20:56:32.523Z,21.60
2018-09-29T20:59:00.277Z,21.69
2018-09-29T21:01:28.300Z,21.69
2018-09-29T21:03:57.823Z,21.73
2018-09-29T21:06:27.135Z,21.80
2018-09-29T21:08:58.754Z,21.86
2018-09-29T21:11:27.925Z,21.95
2018-09-29T21:15:23.169Z,21.98
2018-09-29T21:20:37.203Z,21.88
2018-09-29T21:25:48.622Z,21.88
2018-09-29T21:28:17.844Z,21.92
2018-09-29T21:30:46.921Z,21.98
2018-09-29T21:33:16.054Z,22.00
2018-09-29T21:36:24.846Z,22.05
2018-09-29T21:38:54.124Z,22.10
2018-09-29T21:41:23.777Z,22.05
2018-09-29T21:43:53.029Z,22.16
2018-09-29T21:46:21.729Z,22.15
2018-09-29T21:48:50.903Z,22.25
2018-09-29T21:51:20.779Z,22.20
2018-09-29T21:53:51.007Z,22.26
2018-09-29T21:56:19.842Z,22.27
2018-09-29T21:58:48.833Z,22.14
2018-09-29T22:01:23.938Z,22.15
2018-09-29T22:03:53.742Z,22.22
2018-09-29T22:06:23.705Z,22.26
2018-09-29T22:08:53.049Z,22.30
2018-09-29T22:11:21.820Z,22.32
2018-09-29T22:16:17.783Z,22.35
2018-09-29T22:18:46.877Z,22.43
2018-09-29T22:21:16.821Z,22.44
2018-09-29T22:23:46.220Z,22.45
2018-09-29T22:26:15.934Z,22.45
2018-09-29T22:28:45.806Z,22.49
2018-09-29T22:31:15.424Z,22.48
2018-09-29T22:33:44.862Z,22.41
2018-09-29T22:36:13.934Z,22.43
2018-09-29T22:38:43.942Z,22.48
2018-09-29T22:41:17.927Z,22.57
2018-09-29T22:43:46.203Z,22.56
2018-09-29T22:46:15.767Z,22.52
2018-09-29T22:48:45.685Z,22.41
2018-09-29T22:51:16.330Z,22.43
2018-09-29T22:53:45.793Z,22.50
2018-09-29T22:56:15.588Z,22.52
2018-09-29T22:58:44.913Z,22.61
2018-09-29T23:01:14.097Z,22.62
2018-09-29T23:03:43.743Z,22.59
2018-09-29T23:06:12.954Z,22.56
2018-09-29T23:08:42.794Z,22.57
2018-09-29T23:12:18.877Z,22.59
2018-09-29T23:14:48.225Z,22.57
2018-09-29T23:17:16.857Z,22.64
2018-09-29T23:19:46.757Z,22.64
2018-09-29T23:22:15.942Z,22.54
2018-09-29T23:24:45.766Z,22.12
2018-09-29T23:27:15.674Z,22.38
2018-09-29T23:29:44.878Z,22.40
2018-09-29T23:32:14.656Z,22.38
2018-09-29T23:34:43.877Z,22.37
2018-09-29T23:37:46.882Z,22.38
2018-09-29T23:40:16.746Z,22.40
2018-09-29T23:42:46.218Z,22.39
2018-09-29T23:45:15.926Z,22.36
2018-09-29T23:47:45.936Z,22.42
2018-09-29T23:50:15.874Z,22.32
2018-09-29T23:52:45.870Z,22.36
2018-09-29T23:55:15.754Z,22.35
2018-09-29T23:57:44.937Z,22.33
